createdAt,value
2023-04-02T00:00:12.730Z,0.37
2023-04-02T00:03:15.693Z,0.20
2023-04-02T00:06:30.512Z,0.30
2023-04-02T00:09:36.793Z,0.37
2023-04-02T00:12:39.143Z,0.27
2023-04-02T00:15:47.172Z,0.57
2023-04-02T00:18:53.025Z,0.40
2023-04-02T00:21:55.783Z,0.87
2023-04-02T00:24:58.122Z,0.30
2023-04-02T00:28:00.129Z,0.40
2023-04-02T00:31:02.109Z,0.30
2023-04-02T00:34:05.249Z,0.30
2023-04-02T00:37:07.153Z,0.37
2023-04-02T00:40:21.776Z,0.30
2023-04-02T00:43:26.280Z,0.40
2023-04-02T00:46:47.478Z,0.60
2023-04-02T00:49:57.938Z,0.37
2023-04-02T00:53:01.315Z,0.30
2023-04-02T00:56:04.001Z,0.40
2023-04-02T00:59:13.052Z,0.30
2023-04-02T01:02:18.968Z,0.20
2023-04-02T01:05:23.961Z,0.20
2023-04-02T01:08:28.842Z,0.27
2023-04-02T01:11:52.226Z,0.20
2023-04-02T01:15:04.355Z,0.40
2023-04-02T01:18:46.550Z,0.20
2023-04-02T01:21:53.128Z,0.67
2023-04-02T01:24:58.497Z,0.30
2023-04-02T01:28:09.885Z,0.40
2023-04-02T01:31:12.985Z,0.30
2023-04-02T01:34:18.228Z,0.20
2023-04-02T01:37:32.593Z,0.20
2023-04-02T01:40:40.136Z,0.20
2023-04-02T01:43:53.960Z,0.20
2023-04-02T01:46:59.035Z,0.37
2023-04-02T01:50:32.111Z,0.30
2023-04-02T01:53:34.474Z,0.30
2023-04-02T01:56:37.026Z,0.30
2023-04-02T01:59:38.960Z,0.30
2023-04-02T02:02:41.961Z,0.20
2023-04-02T02:05:44.089Z,0.40
2023-04-02T02:08:55.837Z,0.30
2023-04-02T02:11:59.361Z,0.27
2023-04-02T02:15:01.463Z,0.40
2023-04-02T02:18:04.976Z,0.20
2023-04-02T02:21:08.672Z,0.30
2023-04-02T02:24:25.000Z,0.30
2023-04-02T02:27:26.872Z,0.30
2023-04-02T02:30:47.863Z,0.20
2023-04-02T02:33:52.226Z,0.50
2023-04-02T02:36:59.319Z,0.20
2023-04-02T02:40:05.669Z,0.20
2023-04-02T02:43:11.026Z,0.40
2023-04-02T02:46:18.179Z,0.30
2023-04-02T02:49:28.688Z,0.20
2023-04-02T02:52:33.192Z,0.20
2023-04-02T02:55:37.894Z,0.40
2023-04-02T02:58:40.176Z,0.20
2023-04-02T03:01:44.262Z,0.20
2023-04-02T03:04:53.245Z,0.30
2023-04-02T03:07:57.163Z,0.30
2023-04-02T03:11:07.872Z,0.37
2023-04-02T03:14:38.933Z,0.30
2023-04-02T03:17:59.519Z,0.20
2023-04-02T03:21:12.333Z,0.20
2023-04-02T03:24:35.055Z,0.20
2023-04-02T03:27:41.390Z,0.30
2023-04-02T03:30:58.992Z,0.23
2023-04-02T03:34:19.822Z,0.40
2023-04-02T03:37:28.826Z,0.17
2023-04-02T03:40:36.831Z,0.30
2023-04-02T03:43:46.752Z,0.40
2023-04-02T03:46:57.846Z,0.20
2023-04-02T03:50:12.959Z,0.37
2023-04-02T03:53:15.066Z,0.20
2023-04-02T03:56:40.174Z,0.27
2023-04-02T03:59:51.095Z,0.27
2023-04-02T04:03:00.291Z,0.40
2023-04-02T04:06:18.006Z,0.50
2023-04-02T04:09:30.303Z,0.47
2023-04-02T04:12:32.265Z,0.43
2023-04-02T04:15:42.700Z,0.40
2023-04-02T04:18:49.736Z,0.20
2023-04-02T04:21:57.541Z,0.30
2023-04-02T04:25:03.709Z,0.30
2023-04-02T04:28:24.484Z,0.70
2023-04-02T04:31:40.343Z,0.50
2023-04-02T04:34:47.128Z,0.27
2023-04-02T04:37:54.006Z,0.60
2023-04-02T04:40:58.112Z,0.53
2023-04-02T04:44:26.006Z,0.40
2023-04-02T04:47:42.504Z,0.27
2023-04-02T04:51:05.026Z,0.40
2023-04-02T04:54:12.796Z,0.53
2023-04-02T04:57:31.320Z,0.43
2023-04-02T05:00:44.658Z,0.20
2023-04-02T05:03:56.364Z,0.30
2023-04-02T05:07:20.819Z,0.30
2023-04-02T05:10:40.709Z,0.40
2023-04-02T05:13:48.049Z,0.40
2023-04-02T05:16:59.801Z,0.50
2023-04-02T05:20:10.679Z,0.40
2023-04-02T05:23:29.768Z,0.30
2023-04-02T05:26:51.449Z,0.23
2023-04-02T05:30:01.996Z,0.37
2023-04-02T05:33:08.196Z,0.40
2023-04-02T05:36:12.455Z,0.40
2023-04-02T05:39:22.263Z,0.40
2023-04-02T05:42:28.648Z,0.40
2023-04-02T05:45:39.311Z,0.30
2023-04-02T05:48:43.805Z,0.63
2023-04-02T05:51:50.245Z,0.33
2023-04-02T05:54:57.850Z,0.30
2023-04-02T05:58:33.953Z,0.20
2023-04-02T06:01:41.335Z,0.20
2023-04-02T06:04:59.602Z,0.40
2023-04-02T06:08:21.445Z,0.30
2023-04-02T06:11:42.498Z,0.30
2023-04-02T06:14:45.917Z,0.40
2023-04-02T06:17:48.394Z,0.30
2023-04-02T06:20:50.786Z,0.40
2023-04-02T06:23:57.696Z,0.30
2023-04-02T06:27:06.361Z,0.47
2023-04-02T06:30:17.166Z,0.27
2023-04-02T06:33:19.174Z,0.30
2023-04-02T06:36:21.620Z,0.40
2023-04-02T06:39:27.625Z,0.27
2023-04-02T06:42:35.599Z,0.40
2023-04-02T06:45:42.357Z,0.27
2023-04-02T06:48:44.539Z,0.30
2023-04-02T06:51:48.327Z,0.50
2023-04-02T06:54:50.447Z,0.40
2023-04-02T06:57:52.447Z,0.57
2023-04-02T07:00:54.538Z,0.60
2023-04-02T07:03:57.890Z,0.70
2023-04-02T07:06:59.960Z,25.17
2023-04-02T07:10:02.042Z,8.83
2023-04-02T07:13:05.956Z,1.00
2023-04-02T07:16:14.696Z,0.87
2023-04-02T07:19:23.217Z,0.60
2023-04-02T07:22:27.189Z,0.80
2023-04-02T07:25:29.064Z,0.70
2023-04-02T07:28:32.078Z,0.60
2023-04-02T07:31:34.079Z,18.87
2023-04-02T07:34:37.229Z,3.10
2023-04-02T07:37:39.242Z,17.77
2023-04-02T07:40:42.248Z,23.90
2023-04-02T07:43:44.548Z,15.47
2023-04-02T07:46:47.066Z,3.43
2023-04-02T07:49:49.903Z,18.60
2023-04-02T07:52:52.999Z,3.47
2023-04-02T07:55:55.021Z,2.67
2023-04-02T07:58:57.461Z,3.60
2023-04-02T08:02:00.413Z,1.40
2023-04-02T08:05:02.893Z,0.90
2023-04-02T08:08:05.037Z,0.80
2023-04-02T08:11:08.467Z,0.83
2023-04-02T08:14:10.623Z,0.77
2023-04-02T08:17:12.486Z,0.87
2023-04-02T08:20:22.621Z,1.70
2023-04-02T08:23:26.432Z,1.23
2023-04-02T08:26:28.542Z,1.07
2023-04-02T08:29:32.766Z,0.63
2023-04-02T08:32:35.071Z,0.50
2023-04-02T08:35:37.625Z,0.50
2023-04-02T08:38:39.854Z,0.50
2023-04-02T08:41:49.915Z,0.47
2023-04-02T08:45:25.145Z,0.40
2023-04-02T08:48:28.811Z,1.30
2023-04-02T08:51:37.564Z,1.00
2023-04-02T08:54:44.088Z,0.90
2023-04-02T08:57:48.105Z,0.70
2023-04-02T09:00:54.937Z,0.60
2023-04-02T09:03:59.265Z,0.50
2023-04-02T09:07:01.918Z,0.30
2023-04-02T09:10:04.948Z,0.20
2023-04-02T09:13:17.731Z,0.40
2023-04-02T09:16:23.413Z,0.40
2023-04-02T09:19:32.321Z,0.20
2023-04-02T09:22:36.538Z,0.43
2023-04-02T09:25:51.005Z,0.30
2023-04-02T09:29:20.040Z,0.30
2023-04-02T09:32:47.831Z,0.30
2023-04-02T09:35:49.736Z,0.50
2023-04-02T09:39:00.868Z,0.40
2023-04-02T09:42:08.034Z,0.53
2023-04-02T09:45:22.683Z,0.60
2023-04-02T09:48:39.664Z,0.60
2023-04-02T09:51:41.675Z,0.70
2023-04-02T09:54:44.016Z,0.90
2023-04-02T09:57:47.866Z,1.13
2023-04-02T10:00:51.458Z,0.63
2023-04-02T10:03:53.881Z,0.80
2023-04-02T10:06:58.313Z,0.90
2023-04-02T10:10:05.557Z,0.77
2023-04-02T10:13:12.397Z,0.90
2023-04-02T10:16:38.159Z,0.73
2023-04-02T10:19:43.304Z,0.70
2023-04-02T10:22:45.555Z,0.70
2023-04-02T10:26:00.509Z,0.70
2023-04-02T10:29:13.490Z,0.63
2023-04-02T10:32:31.861Z,0.70
2023-04-02T10:35:45.992Z,0.70
2023-04-02T10:39:17.802Z,0.50
2023-04-02T10:42:33.297Z,1.23
2023-04-02T10:45:45.669Z,1.10
2023-04-02T10:48:57.612Z,0.50
2023-04-02T10:52:10.047Z,0.47
2023-04-02T10:55:43.604Z,0.60
2023-04-02T10:58:57.330Z,0.70
2023-04-02T11:02:02.424Z,0.47
2023-04-02T11:05:17.355Z,0.50
2023-04-02T11:08:32.078Z,0.50
2023-04-02T11:11:41.856Z,0.50
2023-04-02T11:14:44.096Z,0.47
2023-04-02T11:17:47.424Z,0.77
2023-04-02T11:20:49.390Z,0.40
2023-04-02T11:23:57.867Z,0.40
2023-04-02T11:27:12.207Z,1.07
2023-04-02T11:30:18.600Z,0.80
2023-04-02T11:33:44.251Z,0.60
2023-04-02T11:36:50.994Z,0.80
2023-04-02T11:40:16.116Z,0.60
2023-04-02T11:43:39.238Z,0.67
2023-04-02T11:46:42.655Z,0.50
2023-04-02T11:50:00.690Z,0.70
2023-04-02T11:53:17.799Z,0.60
2023-04-02T11:56:34.818Z,0.60
2023-04-02T11:59:43.790Z,1.23
2023-04-02T12:03:23.120Z,1.07
2023-04-02T12:06:47.594Z,1.10
2023-04-02T12:09:52.676Z,0.73
2023-04-02T12:12:55.008Z,1.27
2023-04-02T12:15:58.331Z,1.80
2023-04-02T12:19:01.864Z,0.90
2023-04-02T12:22:03.831Z,1.53
2023-04-02T12:25:30.004Z,0.77
2023-04-02T12:28:34.331Z,0.60
2023-04-02T12:31:37.081Z,3.10
2023-04-02T12:34:46.052Z,1.33
2023-04-02T12:37:55.837Z,1.20
2023-04-02T12:41:03.943Z,0.87
2023-04-02T12:44:12.004Z,1.30
2023-04-02T12:47:14.203Z,1.13
2023-04-02T12:50:17.745Z,0.70
2023-04-02T12:53:32.977Z,1.10
2023-04-02T12:56:38.188Z,0.83
2023-04-02T12:59:40.906Z,0.53
2023-04-02T13:02:49.529Z,1.07
2023-04-02T13:05:54.885Z,1.00
2023-04-02T13:08:57.448Z,1.00
2023-04-02T13:11:59.618Z,1.27
2023-04-02T13:15:04.030Z,1.87
2023-04-02T13:18:08.420Z,0.90
2023-04-02T13:21:17.626Z,0.60
2023-04-02T13:24:22.092Z,1.10
2023-04-02T13:27:24.121Z,1.60
2023-04-02T13:30:28.642Z,1.23
2023-04-02T13:33:30.961Z,2.40
2023-04-02T13:36:33.004Z,1.40
2023-04-02T13:39:35.634Z,2.90
2023-04-02T13:42:37.540Z,2.20
2023-04-02T13:45:41.525Z,2.00
2023-04-02T13:48:43.474Z,1.53
2023-04-02T13:51:48.195Z,1.67
2023-04-02T13:54:53.366Z,1.50
2023-04-02T13:57:56.678Z,1.40
2023-04-02T14:00:58.738Z,1.10
2023-04-02T14:04:03.885Z,1.17
2023-04-02T14:07:14.568Z,1.10
2023-04-02T14:10:22.963Z,0.90
2023-04-02T14:13:24.818Z,1.00
2023-04-02T14:16:59.203Z,1.00
2023-04-02T14:20:22.490Z,1.00
2023-04-02T14:23:50.959Z,5.37
2023-04-02T14:27:09.636Z,3.60
2023-04-02T14:30:28.506Z,5.73
2023-04-02T14:33:49.778Z,11.20
2023-04-02T14:37:22.746Z,6.50
2023-04-02T14:40:52.244Z,2.33
2023-04-02T14:44:03.551Z,1.50
2023-04-02T14:47:15.876Z,1.50
2023-04-02T14:50:28.508Z,2.30
2023-04-02T14:53:49.237Z,1.83
2023-04-02T14:57:01.984Z,0.93
2023-04-02T15:00:11.031Z,0.70
2023-04-02T15:03:20.626Z,0.90
2023-04-02T15:06:37.796Z,1.13
2023-04-02T15:09:46.570Z,0.60
2023-04-02T15:12:49.326Z,1.57
2023-04-02T15:15:57.215Z,6.33
2023-04-02T15:19:01.471Z,1.70
2023-04-02T15:22:31.735Z,15.17
2023-04-02T15:25:43.193Z,2.13
2023-04-02T15:29:28.393Z,1.47
2023-04-02T15:32:34.412Z,1.37
2023-04-02T15:35:40.033Z,1.80
2023-04-02T15:38:48.470Z,1.13
2023-04-02T15:42:11.614Z,0.63
2023-04-02T15:45:19.141Z,0.80
2023-04-02T15:48:31.276Z,1.70
2023-04-02T15:51:51.684Z,1.80
2023-04-02T15:55:01.049Z,1.73
2023-04-02T15:58:35.881Z,1.67
2023-04-02T16:01:54.063Z,1.63
2023-04-02T16:05:08.568Z,1.23
2023-04-02T16:08:48.081Z,1.00
2023-04-02T16:12:12.141Z,1.00
2023-04-02T16:15:21.790Z,1.00
2023-04-02T16:18:52.618Z,0.97
2023-04-02T16:22:35.141Z,0.53
2023-04-02T16:25:48.766Z,1.17
2023-04-02T16:29:09.529Z,1.10
2023-04-02T16:32:29.524Z,1.90
2023-04-02T16:35:57.557Z,3.70
2023-04-02T16:39:04.391Z,3.67
2023-04-02T16:42:26.709Z,2.47
2023-04-02T16:45:44.201Z,1.70
2023-04-02T16:49:04.100Z,1.73
2023-04-02T16:52:23.351Z,1.60
2023-04-02T16:55:31.709Z,1.30
2023-04-02T16:59:05.030Z,1.77
2023-04-02T17:02:34.773Z,2.27
2023-04-02T17:05:58.992Z,2.17
2023-04-02T17:09:20.926Z,1.57
2023-04-02T17:12:30.241Z,1.30
2023-04-02T17:15:41.598Z,1.13
2023-04-02T17:18:47.702Z,0.90
2023-04-02T17:21:54.056Z,1.23
2023-04-02T17:25:00.997Z,1.20
2023-04-02T17:28:03.402Z,0.70
2023-04-02T17:31:36.006Z,1.07
2023-04-02T17:34:38.449Z,1.00
2023-04-02T17:37:56.033Z,0.57
2023-04-02T17:41:12.781Z,0.50
2023-04-02T17:44:46.728Z,0.60
2023-04-02T17:48:07.603Z,1.20
2023-04-02T17:51:30.968Z,1.20
2023-04-02T17:54:42.997Z,0.70
2023-04-02T17:58:17.429Z,0.90
2023-04-02T18:01:29.695Z,0.50
2023-04-02T18:04:38.053Z,0.57
2023-04-02T18:08:07.497Z,0.50
2023-04-02T18:11:11.124Z,0.60
2023-04-02T18:14:37.617Z,0.60
2023-04-02T18:17:59.134Z,0.60
2023-04-02T18:21:04.079Z,0.50
2023-04-02T18:24:21.525Z,0.90
2023-04-02T18:27:39.445Z,1.50
2023-04-02T18:30:48.660Z,0.60
2023-04-02T18:33:56.301Z,0.80
2023-04-02T18:37:10.818Z,0.90
2023-04-02T18:40:55.927Z,0.60
2023-04-02T18:44:35.893Z,1.00
2023-04-02T18:47:52.129Z,0.90
2023-04-02T18:50:55.415Z,0.73
2023-04-02T18:54:19.590Z,0.50
2023-04-02T18:57:23.892Z,0.70
2023-04-02T19:00:31.626Z,0.60
2023-04-02T19:03:44.107Z,0.70
2023-04-02T19:06:50.692Z,0.70
2023-04-02T19:09:53.327Z,0.97
2023-04-02T19:12:57.432Z,0.73
2023-04-02T19:16:18.071Z,0.50
2023-04-02T19:19:20.885Z,0.43
2023-04-02T19:22:54.385Z,0.80
2023-04-02T19:25:58.452Z,0.60
2023-04-02T19:29:04.083Z,0.80
2023-04-02T19:32:35.450Z,0.83
2023-04-02T19:35:57.099Z,1.00
2023-04-02T19:39:06.177Z,1.03
2023-04-02T19:42:16.651Z,0.80
2023-04-02T19:45:36.051Z,1.00
2023-04-02T19:49:05.643Z,1.20
2023-04-02T19:52:07.904Z,1.10
2023-04-02T19:55:11.954Z,1.10
2023-04-02T19:58:36.129Z,1.40
2023-04-02T20:01:38.673Z,2.00
2023-04-02T20:04:41.265Z,2.40
2023-04-02T20:07:43.281Z,3.10
2023-04-02T20:10:46.143Z,3.57
2023-04-02T20:13:50.436Z,3.77
2023-04-02T20:16:52.819Z,3.37
2023-04-02T20:19:54.835Z,3.70
2023-04-02T20:22:56.856Z,4.43
2023-04-02T20:25:58.903Z,4.40
2023-04-02T20:29:00.908Z,4.17
2023-04-02T20:32:02.917Z,4.47
2023-04-02T20:35:06.297Z,4.47
2023-04-02T20:38:09.356Z,4.50
2023-04-02T20:41:11.498Z,4.67
2023-04-02T20:44:13.992Z,5.17
2023-04-02T20:47:16.985Z,4.73
2023-04-02T20:50:18.912Z,5.07
2023-04-02T20:53:21.430Z,4.37
2023-04-02T20:56:23.824Z,4.87
2023-04-02T20:59:25.999Z,5.13
2023-04-02T21:02:28.149Z,5.90
2023-04-02T21:05:30.874Z,6.00
2023-04-02T21:08:32.765Z,6.17
2023-04-02T21:11:36.463Z,5.33
2023-04-02T21:14:40.394Z,5.40
2023-04-02T21:17:42.595Z,5.93
2023-04-02T21:20:44.560Z,5.43
2023-04-02T21:23:47.045Z,4.43
2023-04-02T21:26:48.992Z,4.97
2023-04-02T21:29:50.962Z,5.57
2023-04-02T21:32:52.856Z,5.83
2023-04-02T21:35:54.918Z,5.87
2023-04-02T21:38:59.352Z,6.00
2023-04-02T21:42:01.548Z,6.50
2023-04-02T21:45:04.031Z,5.63
2023-04-02T21:48:06.403Z,5.90
2023-04-02T21:51:29.974Z,5.90
2023-04-02T21:54:31.884Z,5.77
2023-04-02T21:57:33.829Z,5.83
2023-04-02T22:00:35.909Z,6.10
2023-04-02T22:03:38.372Z,5.87
2023-04-02T22:06:41.479Z,5.67
2023-04-02T22:09:43.348Z,6.10
2023-04-02T22:12:45.367Z,5.23
2023-04-02T22:15:47.232Z,6.07
2023-04-02T22:18:51.290Z,5.80
2023-04-02T22:21:53.781Z,5.90
2023-04-02T22:24:56.572Z,5.43
2023-04-02T22:27:58.382Z,6.20
2023-04-02T22:31:14.626Z,5.60
2023-04-02T22:34:16.960Z,6.43
2023-04-02T22:37:18.827Z,5.93
2023-04-02T22:40:20.913Z,6.17
2023-04-02T22:43:22.820Z,5.60
2023-04-02T22:46:26.944Z,6.20
2023-04-02T22:49:28.869Z,6.07
2023-04-02T22:52:30.851Z,6.60
2023-04-02T22:55:32.810Z,6.30
2023-04-02T22:58:36.637Z,6.17
2023-04-02T23:01:38.774Z,6.13
2023-04-02T23:04:41.969Z,6.67
2023-04-02T23:07:44.031Z,7.40
2023-04-02T23:10:46.030Z,6.90
2023-04-02T23:13:49.358Z,6.63
2023-04-02T23:16:51.640Z,7.20
2023-04-02T23:19:53.572Z,7.50
2023-04-02T23:22:56.004Z,7.27
2023-04-02T23:26:06.702Z,7.00
2023-04-02T23:29:09.980Z,6.87
2023-04-02T23:32:12.692Z,7.10
2023-04-02T23:35:15.002Z,6.67
2023-04-02T23:38:16.895Z,7.17
2023-04-02T23:41:18.897Z,7.00
2023-04-02T23:44:20.907Z,6.90
2023-04-02T23:47:23.256Z,6.63
2023-04-02T23:50:25.976Z,6.73
2023-04-02T23:53:28.098Z,7.50
2023-04-02T23:56:29.982Z,7.70
2023-04-02T23:59:31.919Z,6.47
